Time;durP1;ratioP1;P1;durP2;ratioP2;P2;SDS_P1;SDS_P2;PMS_P1;PMS_P2;Temp;Humidity;BMP_temperature;BMP_pressure;BME280_temperature;BME280_humidity;BME280_pressure;Samples;Min_cycle;Max_cycle;Signal;HPM_P1;HPM_P2
2022/05/03 00:00:26;;;;;;;5.13;4.63;;;;;;;21.53;38.34;94857.09;6154936;28;105093;-57
2022/05/03 00:03:38;;;;;;;5.23;4.73;;;;;;;21.51;38.13;94845.97;6159078;28;103459;-57
2022/05/03 00:06:58;;;;;;;4.67;4.37;;;;;;;21.54;38.12;94841.91;6148624;28;104707;-57
2022/05/03 00:10:07;;;;;;;4.70;4.40;;;;;;;21.48;38.46;94852.66;6158860;28;103888;-57
2022/05/03 00:13:14;;;;;;;4.60;4.30;;;;;;;21.49;38.04;94850.78;6158235;28;103799;-57
2022/05/03 00:16:18;;;;;;;4.70;4.40;;;;;;;21.50;38.45;94855.03;6147895;28;104203;-57
2022/05/03 00:19:20;;;;;;;4.10;3.80;;;;;;;21.48;38.07;94855.31;6153173;28;105840;-57
2022/05/03 00:22:23;;;;;;;4.30;4.00;;;;;;;21.44;38.07;94846.38;6157502;28;103840;-57
2022/05/03 00:25:25;;;;;;;4.20;3.90;;;;;;;21.48;38.20;94851.88;6159490;28;103597;-57
2022/05/03 00:28:28;;;;;;;4.33;4.03;;;;;;;21.41;38.38;94841.69;6146803;28;104900;-57
2022/05/03 00:31:30;;;;;;;4.67;4.27;;;;;;;21.44;38.30;94849.06;6156460;28;103835;-57
2022/05/03 00:34:33;;;;;;;4.10;3.90;;;;;;;21.46;37.95;94840.75;6157730;28;103719;-55
2022/05/03 00:37:36;;;;;;;4.60;3.90;;;;;;;21.45;38.24;94839.19;6157924;28;103789;-57
2022/05/03 00:40:44;;;;;;;4.40;4.10;;;;;;;21.43;38.16;94852.03;6147316;28;104064;-57
2022/05/03 00:43:54;;;;;;;4.37;4.07;;;;;;;21.42;38.46;94847.78;6158799;28;104951;-57
2022/05/03 00:47:02;;;;;;;4.37;4.00;;;;;;;21.42;38.15;94848.56;6156839;28;105011;-57
2022/05/03 00:50:28;;;;;;;4.23;3.93;;;;;;;21.44;38.27;94849.06;6134900;28;103669;-56
2022/05/03 00:53:53;;;;;;;4.50;4.20;;;;;;;21.42;38.07;94845.91;6141728;28;104109;-58
2022/05/03 00:57:03;;;;;;;4.80;4.40;;;;;;;21.40;38.13;94842.78;6155502;28;103755;-54
2022/05/03 01:00:14;;;;;;;3.70;3.50;;;;;;;21.42;37.85;94835.25;6158785;28;105140;-57
2022/05/03 01:03:19;;;;;;;4.17;3.87;;;;;;;21.42;37.99;94831.81;6148881;28;104536;-58
2022/05/03 01:06:40;;;;;;;4.23;3.93;;;;;;;21.41;38.27;94831.03;6157769;28;105310;-58
2022/05/03 01:09:50;;;;;;;3.83;3.60;;;;;;;21.38;37.93;94829.00;6159231;28;104862;-56
2022/05/03 01:12:59;;;;;;;4.17;3.87;;;;;;;21.36;38.16;94836.50;6154114;28;103613;-56
2022/05/03 01:16:04;;;;;;;3.90;3.70;;;;;;;21.38;38.07;94831.66;6153785;28;105004;-57
2022/05/03 01:19:57;;;;;;;3.70;3.40;;;;;;;21.33;38.23;94830.97;6156972;28;103691;-57
2022/05/03 01:23:40;;;;;;;4.03;3.73;;;;;;;21.37;37.94;94826.63;6070191;28;104866;-56
2022/05/03 01:27:02;;;;;;;3.73;3.50;;;;;;;21.38;37.89;94830.88;6146648;28;103605;-57
2022/05/03 01:30:04;;;;;;;3.43;3.23;;;;;;;21.36;38.07;94823.19;6158154;28;103843;-57
2022/05/03 01:33:08;;;;;;;4.20;3.90;;;;;;;21.33;38.19;94818.44;6161026;28;104849;-56
2022/05/03 01:36:10;;;;;;;4.23;3.93;;;;;;;21.33;37.78;94818.44;6153941;28;104904;-57
2022/05/03 01:39:26;;;;;;;3.77;3.57;;;;;;;21.32;37.61;94811.56;6162431;28;103817;-57
2022/05/03 01:42:33;;;;;;;3.80;3.60;;;;;;;21.32;38.01;94810.78;6162173;28;103730;-57
2022/05/03 01:45:52;;;;;;;3.70;3.33;;;;;;;21.31;37.85;94809.22;6146367;28;103446;-57
2022/05/03 01:52:31;;;;;;;3.70;3.40;;;;;;;21.31;37.87;94807.34;6161532;28;104265;-57
2022/05/03 01:55:48;;;;;;;4.10;3.80;;;;;;;21.30;37.90;94803.09;6161433;28;103379;-57
2022/05/03 01:59:14;;;;;;;3.57;3.37;;;;;;;21.29;37.90;94808.72;6153244;28;104545;-53
2022/05/03 02:02:43;;;;;;;3.57;3.37;;;;;;;21.26;38.02;94804.03;6144325;28;103830;-55
2022/05/03 02:06:00;;;;;;;4.30;3.90;;;;;;;21.31;37.76;94811.88;6162740;28;103698;-55
2022/05/03 02:09:06;;;;;;;4.43;4.10;;;;;;;21.29;38.11;94804.19;6145511;28;104742;-55
2022/05/03 02:12:11;;;;;;;3.63;3.43;;;;;;;21.27;37.82;94806.38;6146440;28;103986;-55
2022/05/03 02:15:17;;;;;;;3.90;3.70;;;;;;;21.28;37.98;94807.94;6162975;28;103551;-55
2022/05/03 02:18:49;;;;;;;4.30;4.00;;;;;;;21.28;38.11;94810.59;6162472;28;104785;-55
2022/05/03 02:22:09;;;;;;;4.00;3.70;;;;;;;21.29;37.73;94804.19;6151628;28;103827;-55
2022/05/03 02:25:32;;;;;;;4.47;4.17;;;;;;;21.26;38.05;94807.47;6145983;28;103750;-55
2022/05/03 02:28:54;;;;;;;4.27;3.90;;;;;;;21.25;38.01;94805.91;6161441;28;103231;-55
2022/05/03 02:31:58;;;;;;;4.27;3.87;;;;;;;21.24;38.12;94800.88;6161443;28;103966;-54
2022/05/03 02:35:05;;;;;;;3.83;3.57;;;;;;;21.24;38.23;94796.34;6153893;28;104707;-55
2022/05/03 02:38:07;;;;;;;3.97;3.57;;;;;;;21.21;37.86;94787.09;6161801;28;104484;-54
2022/05/03 02:41:11;;;;;;;3.87;3.67;;;;;;;21.22;37.79;94793.22;6142195;28;104219;-54
2022/05/03 02:44:13;;;;;;;3.80;3.50;;;;;;;21.21;38.07;94800.41;6149293;28;104837;-55
2022/05/03 02:47:17;;;;;;;4.00;3.70;;;;;;;21.21;38.14;94788.97;6159183;28;103481;-55
2022/05/03 02:50:21;;;;;;;4.07;3.77;;;;;;;21.17;37.98;94788.00;6160605;28;104832;-55
2022/05/03 02:53:29;;;;;;;4.07;3.77;;;;;;;21.22;37.71;94785.22;6148846;28;103843;-55
2022/05/03 02:56:55;;;;;;;3.93;3.70;;;;;;;21.19;38.01;94785.84;6148980;28;104573;-54
2022/05/03 03:03:43;;;;;;;3.80;3.60;;;;;;;21.24;37.97;94788.38;6160256;28;105332;-55
2022/05/03 03:06:46;;;;;;;3.83;3.53;;;;;;;21.12;37.58;94799.56;6153988;28;103720;-53
2022/05/03 03:10:00;;;;;;;4.37;3.27;;;;;;;20.84;37.87;94793.59;6157634;28;104683;-53
2022/05/03 03:13:15;;;;;;;4.10;3.70;;;;;;;20.78;37.68;94794.78;6160416;28;105091;-53
2022/05/03 03:16:31;;;;;;;4.07;3.67;;;;;;;20.68;37.91;94789.75;6160666;28;103630;-52
2022/05/03 03:20:11;;;;;;;3.20;2.90;;;;;;;20.63;37.59;94797.81;6150877;28;103603;-53
2022/05/03 03:23:18;;;;;;;3.27;2.97;;;;;;;20.55;37.71;94787.91;6159404;28;103514;-53
2022/05/03 03:26:22;;;;;;;3.37;3.17;;;;;;;20.54;37.49;94789.00;6158816;28;103809;-53
2022/05/03 03:29:27;;;;;;;3.50;3.20;;;;;;;20.56;37.52;94792.94;6151979;28;103926;-52
2022/05/03 03:32:29;;;;;;;3.40;3.20;;;;;;;20.45;37.55;94791.59;6154770;28;104594;-53
2022/05/03 03:35:31;;;;;;;3.87;3.40;;;;;;;20.43;37.49;94793.75;6136305;28;103986;-52
2022/05/03 03:38:43;;;;;;;3.53;3.33;;;;;;;20.45;37.42;94794.25;6146332;28;104607;-53
2022/05/03 03:41:47;;;;;;;3.57;3.27;;;;;;;20.39;37.53;94792.00;6144213;28;105039;-52
2022/05/03 03:44:49;;;;;;;3.77;3.47;;;;;;;20.41;37.34;94797.81;6155061;28;104204;-52
2022/05/03 03:47:51;;;;;;;6.03;3.87;;;;;;;20.35;37.62;94799.03;6151042;28;105129;-54
2022/05/03 03:50:55;;;;;;;6.13;4.90;;;;;;;20.34;37.64;94808.09;6149318;28;105837;-60
2022/05/03 03:53:57;;;;;;;7.90;5.20;;;;;;;20.53;38.36;94806.03;6142798;28;103500;-53
2022/05/03 03:56:59;;;;;;;12.40;4.47;;;;;;;20.67;38.75;94808.63;6155277;28;105021;-55
2022/05/03 04:00:07;;;;;;;7.17;3.50;;;;;;;20.65;38.80;94814.25;6149247;28;104820;-54
2022/05/03 04:03:09;;;;;;;6.33;4.00;;;;;;;20.81;39.00;94820.78;6149503;28;103979;-55
2022/05/03 04:06:11;;;;;;;4.10;3.70;;;;;;;20.71;38.56;94818.38;6148907;28;103703;-52
2022/05/03 04:09:13;;;;;;;7.20;4.60;;;;;;;20.72;39.29;94822.59;6154439;28;105065;-53
2022/05/03 04:12:19;;;;;;;5.50;5.00;;;;;;;20.80;39.62;94821.09;6149447;28;104156;-53
2022/05/03 04:15:21;;;;;;;7.80;4.03;;;;;;;20.74;38.91;94823.09;6143412;28;104927;-52
2022/05/03 04:18:44;;;;;;;5.33;3.23;;;;;;;20.52;39.46;94817.75;6155147;28;103875;-53
2022/05/03 04:21:46;;;;;;;6.13;3.70;;;;;;;20.48;39.52;94816.78;6148249;28;105156;-52
2022/05/03 04:24:48;;;;;;;5.50;4.03;;;;;;;20.70;40.17;94813.38;6158871;28;104875;-50
2022/05/03 04:27:50;;;;;;;5.50;4.03;;;;;;;20.77;39.41;94813.72;6148993;28;103781;-52
2022/05/03 04:30:51;;;;;;;5.20;3.80;;;;;;;20.72;39.24;94817.28;6159291;28;104003;-51
2022/05/03 04:33:56;;;;;;;3.70;3.40;;;;;;;20.70;39.47;94822.13;6160287;28;104923;-52
2022/05/03 04:36:59;;;;;;;6.13;4.00;;;;;;;20.72;39.01;94821.81;6157147;28;103836;-50
2022/05/03 04:40:00;;;;;;;3.60;3.30;;;;;;;20.75;38.78;94819.34;6152330;28;103744;-53
2022/05/03 04:43:02;;;;;;;4.80;3.17;;;;;;;20.75;38.93;94821.22;6157792;28;103942;-52
2022/05/03 04:46:04;;;;;;;3.63;3.33;;;;;;;20.75;39.16;94827.31;6157800;28;104048;-52
2022/05/03 04:49:05;;;;;;;3.80;3.30;;;;;;;20.73;38.73;94824.19;6149066;28;103813;-53
2022/05/03 04:52:12;;;;;;;4.00;3.50;;;;;;;20.76;38.77;94823.56;6157918;28;104779;-52
2022/05/03 04:55:14;;;;;;;5.47;3.27;;;;;;;20.85;38.45;94831.63;6159570;28;103746;-52
2022/05/03 04:58:16;;;;;;;3.53;3.23;;;;;;;20.79;38.76;94828.28;6160222;28;105003;-52
2022/05/03 05:01:19;;;;;;;3.67;3.13;;;;;;;20.83;38.51;94839.88;6148888;28;103860;-51
2022/05/03 05:04:21;;;;;;;3.53;3.23;;;;;;;20.80;38.55;94829.84;6160169;28;104798;-52
2022/05/03 05:07:23;;;;;;;3.27;2.97;;;;;;;20.82;38.38;94837.53;6160439;28;103847;-52
2022/05/03 05:10:24;;;;;;;3.10;2.60;;;;;;;20.86;38.54;94835.84;6164146;28;103909;-52
2022/05/03 05:13:26;;;;;;;2.73;2.53;;;;;;;20.83;38.70;94839.88;6155336;28;103792;-55
2022/05/03 05:16:28;;;;;;;4.07;3.30;;;;;;;20.90;38.31;94837.59;6163649;28;105257;-55
2022/05/03 05:19:30;;;;;;;3.60;3.30;;;;;;;20.89;38.61;94843.22;6163938;28;104802;-54
2022/05/03 05:22:32;;;;;;;5.30;4.20;;;;;;;20.91;39.44;94833.84;6160046;28;104887;-51
2022/05/03 05:25:34;;;;;;;3.83;3.17;;;;;;;20.93;39.14;94839.66;6158895;28;103864;-52
2022/05/03 05:28:36;;;;;;;4.67;3.57;;;;;;;20.88;39.32;94829.13;6164382;28;104018;-52
2022/05/03 05:31:37;;;;;;;3.77;3.10;;;;;;;20.91;38.95;94846.34;6162873;28;103979;-52
2022/05/03 05:34:39;;;;;;;3.40;3.10;;;;;;;20.89;39.35;94844.00;6154581;28;103694;-52
2022/05/03 05:37:41;;;;;;;3.50;3.30;;;;;;;20.92;39.13;94848.72;6161624;28;103866;-52
2022/05/03 05:40:46;;;;;;;3.00;2.80;;;;;;;20.87;38.93;94840.88;6163977;28;103907;-55
2022/05/03 05:43:48;;;;;;;3.23;3.03;;;;;;;20.95;39.08;94846.53;6163891;28;104012;-53
2022/05/03 05:46:49;;;;;;;3.37;3.17;;;;;;;20.96;39.06;94842.78;6153829;28;103426;-53
2022/05/03 05:49:51;;;;;;;5.93;3.33;;;;;;;20.99;39.31;94852.81;6163537;28;103179;-52
2022/05/03 05:56:16;;;;;;;4.43;2.70;;;;;;;20.99;38.82;94858.91;6163477;28;105040;-53
2022/05/03 05:59:21;;;;;;;3.03;2.83;;;;;;;20.97;38.84;94857.66;6154955;28;103658;-52
2022/05/03 06:02:22;;;;;;;3.20;2.90;;;;;;;21.01;38.53;94869.28;6162088;28;103972;-52
2022/05/03 06:05:24;;;;;;;3.07;2.77;;;;;;;21.00;38.42;94862.38;6162811;28;103664;-52
2022/05/03 06:08:27;;;;;;;2.80;2.60;;;;;;;21.01;38.36;94869.28;6153997;28;103140;-51
2022/05/03 06:11:29;;;;;;;3.37;3.17;;;;;;;20.98;38.36;94865.31;6161617;28;105031;-53
2022/05/03 06:14:31;;;;;;;2.53;2.37;;;;;;;20.98;38.69;94864.53;6162127;28;105123;-52
2022/05/03 06:17:33;;;;;;;3.13;2.93;;;;;;;20.99;38.61;94868.78;6161785;28;103746;-55
2022/05/03 06:20:36;;;;;;;3.03;2.73;;;;;;;21.06;38.56;94869.19;6152334;28;105626;-52
2022/05/03 06:23:41;;;;;;;3.03;2.80;;;;;;;21.03;38.30;94875.09;6162853;28;104292;-52
2022/05/03 06:26:44;;;;;;;3.03;2.83;;;;;;;21.05;38.38;94870.28;6162730;28;104130;-53
2022/05/03 06:29:46;;;;;;;3.03;2.83;;;;;;;20.97;38.36;94860.31;6162505;28;103706;-57
2022/05/03 06:32:48;;;;;;;2.93;2.73;;;;;;;21.08;38.44;94867.78;6152500;28;104749;-52
2022/05/03 06:35:50;;;;;;;2.90;2.70;;;;;;;21.07;38.41;94881.41;6162935;28;104646;-52
2022/05/03 06:38:52;;;;;;;3.20;3.00;;;;;;;21.04;38.24;94882.75;6162622;28;105119;-52
2022/05/03 06:41:54;;;;;;;2.70;2.50;;;;;;;21.05;38.43;94881.69;6158376;28;103791;-52
2022/05/03 06:44:59;;;;;;;3.27;3.07;;;;;;;21.01;38.23;94882.59;6156692;28;103635;-53
2022/05/03 06:48:01;;;;;;;2.97;2.70;;;;;;;21.01;38.66;94888.69;6162739;28;104930;-53
2022/05/03 06:51:03;;;;;;;9.30;3.77;;;;;;;21.02;38.41;94882.28;6162169;28;103691;-53
2022/05/03 06:54:05;;;;;;;4.30;2.70;;;;;;;21.00;38.23;94879.09;6153629;28;103562;-53
2022/05/03 06:57:07;;;;;;;2.80;2.60;;;;;;;21.03;38.39;94896.38;6161743;28;103835;-53
2022/05/03 07:00:09;;;;;;;3.50;3.20;;;;;;;21.07;38.19;94892.81;6162332;28;104928;-53
2022/05/03 07:03:12;;;;;;;3.00;2.80;;;;;;;21.03;38.15;94896.38;6161474;28;104407;-52
2022/05/03 07:06:20;;;;;;;3.53;3.23;;;;;;;21.05;38.13;94899.53;6127024;28;103788;-52
2022/05/03 07:09:22;;;;;;;2.60;2.40;;;;;;;21.04;38.14;94896.06;6138171;28;103876;-53
2022/05/03 07:12:23;;;;;;;3.20;3.00;;;;;;;21.02;38.03;94894.78;6152857;28;103938;-53
2022/05/03 07:15:26;;;;;;;3.33;2.87;;;;;;;21.05;37.96;94899.53;6151659;28;103745;-53
2022/05/03 07:25:09;;;;;;;2.87;2.67;;;;;;;21.07;37.93;94900.03;6138005;28;103705;-53
2022/05/03 07:28:11;;;;;;;3.07;2.77;;;;;;;21.06;38.21;94896.56;6128835;28;104662;-53
2022/05/03 07:31:13;;;;;;;2.80;2.60;;;;;;;21.05;38.03;94907.53;6136261;28;103976;-53
2022/05/03 07:34:15;;;;;;;2.50;2.30;;;;;;;21.01;38.05;94894.00;6137367;28;103690;-53
2022/05/03 07:37:17;;;;;;;2.70;2.50;;;;;;;21.06;38.14;94911.75;6137036;28;103117;-52
2022/05/03 07:40:19;;;;;;;2.60;2.40;;;;;;;21.02;38.20;94916.09;6127802;28;103901;-53
2022/05/03 07:43:20;;;;;;;2.47;2.27;;;;;;;21.02;38.40;94921.41;6137019;28;104871;-54
2022/05/03 07:46:22;;;;;;;2.83;2.63;;;;;;;21.04;37.83;94920.00;6137023;28;105255;-54
2022/05/03 07:49:24;;;;;;;2.83;2.63;;;;;;;21.06;37.83;94922.41;6137181;28;103683;-53
2022/05/03 07:52:27;;;;;;;3.53;2.30;;;;;;;21.05;37.91;94921.59;6127236;28;104031;-52
2022/05/03 07:55:29;;;;;;;2.87;2.67;;;;;;;21.05;37.83;94923.47;6137229;28;103718;-53
2022/05/03 07:58:31;;;;;;;2.97;2.60;;;;;;;21.04;37.87;94924.53;6136694;28;104254;-52
2022/05/03 08:01:32;;;;;;;2.67;2.47;;;;;;;21.02;37.81;94921.41;6132378;28;104200;-53
2022/05/03 08:04:34;;;;;;;2.50;2.30;;;;;;;21.07;38.18;94934.59;6132270;28;103682;-54
2022/05/03 08:07:36;;;;;;;2.30;2.20;;;;;;;21.00;37.87;94926.22;6160484;28;103756;-54
2022/05/03 08:10:38;;;;;;;2.60;2.40;;;;;;;21.08;37.72;94936.19;6161208;28;104966;-53
2022/05/03 08:13:41;;;;;;;2.90;2.60;;;;;;;21.04;38.05;94941.28;6150727;28;104044;-52
2022/05/03 08:16:43;;;;;;;2.40;2.20;;;;;;;21.04;37.43;94940.50;6160848;28;104939;-53
2022/05/03 08:19:45;;;;;;;2.60;2.27;;;;;;;21.03;38.08;94942.38;6143370;28;104732;-53
2022/05/03 08:22:47;;;;;;;2.80;2.60;;;;;;;21.03;37.57;94937.06;6160091;28;103657;-53
2022/05/03 08:25:49;;;;;;;2.43;2.33;;;;;;;21.02;38.14;94940.81;6151919;28;103807;-53
2022/05/03 08:28:51;;;;;;;2.37;2.17;;;;;;;21.04;37.49;94948.50;6160281;28;103672;-53
2022/05/03 08:31:52;;;;;;;2.70;2.50;;;;;;;21.02;37.82;94937.38;6160458;28;104052;-53
2022/05/03 08:34:54;;;;;;;2.67;2.47;;;;;;;21.00;37.71;94939.50;6158346;28;104128;-53
2022/05/03 08:44:37;;;;;;;2.10;2.00;;;;;;;21.05;37.58;94939.44;6159411;28;103695;-53
2022/05/03 08:47:41;;;;;;;2.53;2.33;;;;;;;21.08;37.72;94941.50;6150950;28;104972;-53
2022/05/03 08:50:43;;;;;;;2.70;2.50;;;;;;;21.04;37.67;94940.50;6160551;28;103887;-53
2022/05/03 08:53:45;;;;;;;2.33;2.20;;;;;;;21.04;37.57;94943.16;6160854;28;104883;-53
2022/05/03 08:56:47;;;;;;;2.30;2.20;;;;;;;21.03;37.57;94944.25;6159948;28;103592;-52
2022/05/03 08:59:50;;;;;;;2.20;2.10;;;;;;;21.07;37.59;94942.59;6150243;28;103666;-53
2022/05/03 09:02:55;;;;;;;2.40;2.20;;;;;;;21.05;37.46;94944.75;6160437;28;103541;-59
2022/05/03 09:05:57;;;;;;;2.20;2.10;;;;;;;21.06;37.62;94946.34;6159201;28;103695;-53
2022/05/03 09:08:59;;;;;;;2.30;2.10;;;;;;;20.98;37.79;94937.16;6160455;28;103837;-53
2022/05/03 09:12:01;;;;;;;2.70;2.30;;;;;;;21.02;37.72;94948.78;6148935;28;103648;-54
2022/05/03 09:15:04;;;;;;;2.57;2.37;;;;;;;21.01;37.64;94941.13;6159815;28;103880;-55
2022/05/03 09:18:05;;;;;;;2.43;2.23;;;;;;;21.04;37.71;94951.94;6159833;28;103738;-53
2022/05/03 09:24:52;;;;;;;2.43;2.23;;;;;;;21.07;37.63;94945.25;6135318;28;103680;-53
2022/05/03 09:28:05;;;;;;;2.20;2.10;;;;;;;21.04;37.40;94940.50;6136906;28;103421;-53
2022/05/03 09:31:06;;;;;;;2.30;2.20;;;;;;;21.04;37.41;94940.50;6135560;28;103805;-54
2022/05/03 09:34:23;;;;;;;2.43;2.23;;;;;;;21.06;37.35;94944.47;6126306;28;104950;-53
2022/05/03 09:37:38;;;;;;;2.40;2.20;;;;;;;21.05;37.69;94945.56;6134583;28;103756;-54
2022/05/03 09:40:43;;;;;;;2.60;2.40;;;;;;;21.05;37.48;94942.09;6136201;28;104829;-53
2022/05/03 09:44:02;;;;;;;2.40;2.20;;;;;;;21.05;37.43;94934.13;6130245;28;103859;-53
2022/05/03 09:47:11;;;;;;;2.70;2.27;;;;;;;21.06;37.41;94933.03;6134426;28;104906;-53
2022/05/03 09:50:26;;;;;;;2.43;2.30;;;;;;;21.08;37.48;94931.66;6135110;28;103722;-53
2022/05/03 09:53:28;;;;;;;2.70;2.50;;;;;;;21.08;37.45;94928.19;6136752;28;105131;-53
2022/05/03 09:56:33;;;;;;;2.30;2.10;;;;;;;21.06;37.46;94925.06;6129378;28;103999;-53
2022/05/03 09:59:35;;;;;;;1.83;1.73;;;;;;;21.05;37.51;94926.16;6139750;28;103786;-53
2022/05/03 10:02:40;;;;;;;2.27;2.07;;;;;;;21.08;37.44;94921.00;6139675;28;103673;-53
2022/05/03 10:05:48;;;;;;;2.27;2.17;;;;;;;21.07;37.33;94921.31;6149498;28;103819;-53
2022/05/03 10:08:51;;;;;;;2.10;2.00;;;;;;;21.10;37.39;94931.34;6154081;28;104535;-53
2022/05/03 10:11:54;;;;;;;2.40;2.30;;;;;;;21.07;37.49;94922.09;6163265;28;104765;-54
2022/05/03 10:14:56;;;;;;;2.27;2.17;;;;;;;21.06;37.20;94927.72;6163128;28;104335;-54
2022/05/03 10:21:24;;;;;;;2.30;2.20;;;;;;;21.04;37.30;94922.66;6162592;28;103162;-53
2022/05/03 10:24:28;;;;;;;2.33;2.23;;;;;;;21.05;37.20;94920.81;6163410;28;103981;-53
2022/05/03 10:27:29;;;;;;;2.17;2.07;;;;;;;21.02;37.48;94916.88;6163180;28;103948;-56
2022/05/03 10:30:34;;;;;;;2.00;1.90;;;;;;;21.04;37.44;94917.34;6153541;28;104003;-53
2022/05/03 10:33:37;;;;;;;2.10;2.00;;;;;;;21.04;37.42;94916.56;6162767;28;104650;-53
2022/05/03 10:36:40;;;;;;;2.27;2.17;;;;;;;21.04;37.65;94911.25;6163246;28;104132;-54
2022/05/03 10:39:51;;;;;;;2.23;2.07;;;;;;;21.07;37.42;94914.09;6162094;28;103554;-53
2022/05/03 10:43:06;;;;;;;2.10;2.00;;;;;;;21.08;37.32;94912.22;6152699;28;104678;-54
2022/05/03 10:46:13;;;;;;;2.50;2.30;;;;;;;21.04;37.54;94908.59;6162951;28;103753;-54
2022/05/03 10:49:20;;;;;;;2.40;2.30;;;;;;;21.04;37.38;94908.59;6162579;28;104395;-54
2022/05/03 10:52:21;;;;;;;2.10;2.00;;;;;;;21.05;36.99;94913.63;6153957;28;104718;-53
2022/05/03 10:55:24;;;;;;;2.30;2.10;;;;;;;21.04;37.26;94912.03;6162717;28;104769;-59
2022/05/03 10:58:28;;;;;;;2.30;2.10;;;;;;;21.06;37.35;94914.41;6162241;28;104663;-53
2022/05/03 11:01:30;;;;;;;2.07;1.97;;;;;;;21.07;37.37;94913.31;6163198;28;103820;-52
2022/05/03 11:04:35;;;;;;;2.03;1.90;;;;;;;21.07;37.06;94908.00;6151634;28;103638;-53
2022/05/03 11:07:37;;;;;;;1.83;1.73;;;;;;;21.04;37.24;94895.28;6138113;28;104491;-52
2022/05/03 11:10:45;;;;;;;2.23;2.13;;;;;;;21.07;37.06;94903.47;6136637;28;103760;-53
2022/05/03 11:13:49;;;;;;;2.30;2.20;;;;;;;21.10;37.35;94896.75;6138079;28;104741;-53
2022/05/03 11:17:05;;;;;;;2.20;2.10;;;;;;;21.12;37.12;94897.22;6128469;28;104610;-53
2022/05/03 11:20:08;;;;;;;2.10;2.00;;;;;;;21.15;37.38;94888.63;6137262;28;103847;-52
2022/05/03 11:23:09;;;;;;;2.03;1.93;;;;;;;21.16;37.21;94892.88;6137953;28;103691;-53
2022/05/03 11:26:11;;;;;;;2.30;2.20;;;;;;;21.12;37.21;94879.38;6130496;28;104695;-51
2022/05/03 11:29:14;;;;;;;2.43;2.23;;;;;;;21.17;36.82;94886.47;6135329;28;103943;-54
2022/05/03 11:32:27;;;;;;;2.27;2.17;;;;;;;21.18;37.03;94883.53;6137845;28;103552;-53
2022/05/03 11:35:29;;;;;;;2.83;2.63;;;;;;;21.17;36.99;94881.94;6136147;28;104594;-54
2022/05/03 11:38:31;;;;;;;2.17;2.00;;;;;;;21.15;36.92;94873.47;6127549;28;105304;-52
2022/05/03 11:41:47;;;;;;;2.13;2.03;;;;;;;21.11;37.08;94871.72;6136334;28;103306;-53
2022/05/03 11:44:52;;;;;;;2.20;2.10;;;;;;;21.14;37.33;94881.75;6137109;28;103928;-54
2022/05/03 11:47:54;;;;;;;2.37;2.23;;;;;;;21.12;37.08;94882.06;6137230;28;104262;-54
2022/05/03 11:57:42;;;;;;;2.27;2.10;;;;;;;21.06;37.28;94877.16;6136728;28;104805;-53
2022/05/03 12:00:48;;;;;;;2.50;2.30;;;;;;;21.07;36.80;94878.72;6127972;28;104352;-54
2022/05/03 12:03:56;;;;;;;2.37;2.20;;;;;;;21.05;37.09;94883.56;6137129;28;104716;-54
2022/05/03 12:06:58;;;;;;;2.30;2.20;;;;;;;21.00;37.16;94868.47;6157026;28;105158;-54
2022/05/03 12:09:59;;;;;;;1.80;1.70;;;;;;;20.99;37.08;94872.22;6160309;28;104018;-53
2022/05/03 12:13:10;;;;;;;2.77;2.00;;;;;;;21.04;37.04;94871.34;6133841;28;104677;-53
2022/05/03 12:16:15;;;;;;;2.50;2.30;;;;;;;21.02;37.15;94878.84;6160604;28;103736;-53
2022/05/03 12:19:20;;;;;;;2.17;2.07;;;;;;;21.02;37.23;94873.50;6160657;28;104919;-53
2022/05/03 12:22:22;;;;;;;2.10;2.00;;;;;;;21.01;37.28;94885.25;6156711;28;104574;-53
2022/05/03 12:25:27;;;;;;;2.50;2.30;;;;;;;21.03;37.15;94886.50;6153930;28;104986;-53
2022/05/03 12:28:39;;;;;;;2.40;2.20;;;;;;;21.03;36.96;94893.72;6160683;28;104817;-53
2022/05/03 12:31:43;;;;;;;2.10;2.00;;;;;;;21.00;37.29;94897.72;6160384;28;103876;-52
2022/05/03 12:34:59;;;;;;;2.03;1.93;;;;;;;21.00;37.07;94897.72;6151618;28;104693;-53
2022/05/03 12:38:16;;;;;;;2.00;1.90;;;;;;;21.02;36.98;94905.44;6160404;28;103814;-53
2022/05/03 12:41:31;;;;;;;1.90;1.80;;;;;;;21.01;36.98;94903.88;6159868;28;103915;-54
2022/05/03 12:44:49;;;;;;;2.03;1.90;;;;;;;21.01;37.06;94899.34;6159965;28;103920;-54
2022/05/03 12:47:51;;;;;;;2.30;2.07;;;;;;;21.01;36.79;94904.66;6151178;28;104262;-53
2022/05/03 12:50:58;;;;;;;2.03;1.93;;;;;;;20.98;37.09;94899.13;6159274;28;103706;-54
2022/05/03 12:54:04;;;;;;;1.93;1.73;;;;;;;20.96;37.12;94910.06;6160011;28;104025;-53
2022/05/03 13:00:27;;;;;;;2.03;1.93;;;;;;;20.99;36.79;94917.44;6160121;28;103726;-54
2022/05/03 13:03:29;;;;;;;2.20;2.10;;;;;;;20.99;36.81;94912.13;6160387;28;103924;-53
2022/05/03 13:06:31;;;;;;;2.40;2.20;;;;;;;20.99;36.92;94906.00;6160561;28;103863;-53
2022/05/03 13:09:33;;;;;;;1.80;1.70;;;;;;;20.98;36.81;94909.75;6150373;28;103749;-54
2022/05/03 13:12:35;;;;;;;2.20;2.10;;;;;;;20.98;36.85;94910.56;6159989;28;104937;-54
2022/05/03 13:15:38;;;;;;;2.13;1.80;;;;;;;20.97;36.64;94911.63;6159329;28;104746;-54
2022/05/03 13:18:40;;;;;;;2.23;1.90;;;;;;;20.97;36.91;94910.84;6159763;28;103736;-55
2022/05/03 13:22:02;;;;;;;2.10;2.00;;;;;;;20.92;37.14;94912.56;6155302;28;105611;-54
2022/05/03 13:25:04;;;;;;;2.50;2.30;;;;;;;;;;6159891;28;103653;-53
2022/05/03 13:28:06;;;;;;;2.13;2.00;;;;;;;20.93;37.17;94908.81;6160738;28;103586;-54
2022/05/03 13:31:08;;;;;;;1.90;1.80;;;;;;;20.97;36.78;94918.84;6154870;28;103732;-55
2022/05/03 13:34:10;;;;;;;10.37;2.00;;;;;;;20.97;37.19;94908.19;6164597;28;104892;-53
2022/05/03 13:40:34;;;;;;;1.97;1.83;;;;;;;21.11;36.58;94920.38;6163993;28;107887;-54
2022/05/03 13:43:36;;;;;;;1.70;1.60;;;;;;;21.09;36.99;94911.13;6154905;28;103740;-54
2022/05/03 13:46:38;;;;;;;2.10;2.00;;;;;;;21.12;36.85;94916.63;6163024;28;103612;-53
2022/05/03 13:49:42;;;;;;;2.57;2.00;;;;;;;21.12;37.17;94921.19;6164549;28;104819;-53
2022/05/03 13:52:44;;;;;;;1.83;1.63;;;;;;;21.04;37.30;94922.66;6163923;28;104792;-53
2022/05/03 13:55:45;;;;;;;1.90;1.80;;;;;;;21.01;37.24;94919.81;6153044;28;103663;-58
2022/05/03 13:58:47;;;;;;;1.97;1.77;;;;;;;20.98;37.25;94918.53;6178577;28;104856;-56
2022/05/03 14:01:49;;;;;;;2.10;2.00;;;;;;;20.96;37.30;94922.59;6163191;28;103443;-56
2022/05/03 14:04:52;;;;;;;2.57;2.37;;;;;;;20.96;37.42;94923.38;6157244;28;103852;-55
2022/05/03 14:07:54;;;;;;;2.40;2.20;;;;;;;20.93;37.20;94923.97;6159822;28;105249;-56
2022/05/03 14:10:56;;;;;;;2.07;1.97;;;;;;;20.93;37.32;94924.75;6162636;28;103869;-56
2022/05/03 14:13:59;;;;;;;2.73;2.53;;;;;;;20.97;37.14;94921.50;6162662;28;103644;-54
2022/05/03 14:17:01;;;;;;;2.63;2.43;;;;;;;20.93;37.07;94919.44;6152375;28;103539;-54
2022/05/03 14:20:03;;;;;;;2.70;2.50;;;;;;;;;;6145881;28;103767;-54
2022/05/03 14:23:05;;;;;;;3.23;2.47;;;;;;;20.94;37.29;94920.22;6145376;28;103937;-54
2022/05/03 14:26:09;;;;;;;2.50;2.40;;;;;;;20.91;37.26;94924.28;6162989;28;103660;-53
2022/05/03 14:29:11;;;;;;;2.00;1.90;;;;;;;20.93;37.38;94931.97;6137517;28;104921;-53
2022/05/03 14:32:13;;;;;;;3.97;2.47;;;;;;;20.90;37.27;94937.88;6162679;28;103801;-53
2022/05/03 14:35:15;;;;;;;5.40;2.40;;;;;;;20.86;37.25;94926.28;6164112;28;103801;-58
2022/05/03 14:38:17;;;;;;;2.97;2.77;;;;;;;20.88;37.16;94938.19;6161430;28;104176;-53
2022/05/03 14:41:19;;;;;;;2.20;2.10;;;;;;;20.91;37.22;94934.13;6153535;28;104753;-54
2022/05/03 14:44:20;;;;;;;2.67;2.37;;;;;;;20.87;37.16;94939.28;6145441;28;104779;-54
2022/05/03 14:47:22;;;;;;;2.63;2.40;;;;;;;20.88;37.10;94938.19;6144323;28;103589;-53
2022/05/03 14:50:24;;;;;;;2.27;2.07;;;;;;;20.85;37.30;94938.78;6154004;28;103853;-53
2022/05/03 14:53:26;;;;;;;2.27;2.17;;;;;;;20.90;37.42;94936.00;6143961;28;104921;-53
2022/05/03 15:03:08;;;;;;;2.20;2.10;;;;;;;20.90;36.98;94930.69;6128916;28;103742;-54
2022/05/03 15:06:11;;;;;;;2.60;2.47;;;;;;;20.90;37.04;94937.88;6160492;28;103532;-52
2022/05/03 15:09:12;;;;;;;4.40;2.83;;;;;;;20.83;37.08;94935.63;6162809;28;103698;-54
2022/05/03 15:12:14;;;;;;;3.93;3.63;;;;;;;20.70;36.75;94936.47;6162364;28;103879;-54
2022/05/03 15:15:18;;;;;;;9.00;4.20;;;;;;;20.67;37.19;94939.72;6149256;28;104002;-54